createdAt,value
2022-09-12T00:00:15.747Z,3.15
2022-09-12T00:03:18.485Z,4.60
2022-09-12T00:06:28.328Z,2.95
2022-09-12T00:09:31.065Z,3.23
2022-09-12T00:12:33.526Z,2.27
2022-09-12T00:15:40.537Z,3.40
2022-09-12T00:18:43.864Z,2.53
2022-09-12T00:21:46.560Z,5.28
2022-09-12T00:24:49.009Z,4.50
2022-09-12T00:27:51.828Z,5.33
2022-09-12T00:30:54.305Z,3.80
2022-09-12T00:33:58.800Z,5.32
2022-09-12T00:37:01.451Z,4.85
2022-09-12T00:40:04.561Z,4.37
2022-09-12T00:43:13.709Z,4.03
2022-09-12T00:46:28.384Z,3.75
2022-09-12T00:50:04.556Z,4.03
2022-09-12T00:53:08.799Z,2.97
2022-09-12T00:56:12.728Z,2.90
2022-09-12T00:59:19.129Z,2.97
2022-09-12T01:02:21.979Z,3.75
2022-09-12T01:05:25.176Z,3.67
2022-09-12T01:08:28.801Z,3.35
2022-09-12T01:11:32.864Z,5.27
2022-09-12T01:14:35.587Z,5.20
2022-09-12T01:18:24.960Z,2.95
2022-09-12T01:21:36.332Z,2.75
2022-09-12T01:25:17.984Z,5.18
2022-09-12T01:28:51.424Z,3.43
2022-09-12T01:32:09.198Z,3.57
2022-09-12T01:35:22.991Z,2.78
2022-09-12T01:38:36.375Z,4.35
2022-09-12T01:42:03.800Z,4.00
2022-09-12T01:45:18.605Z,4.57
2022-09-12T01:48:31.274Z,3.33
2022-09-12T01:52:01.827Z,4.62
2022-09-12T01:55:12.891Z,4.50
2022-09-12T01:58:39.249Z,3.70
2022-09-12T02:01:46.827Z,4.73
2022-09-12T02:04:58.217Z,3.40
2022-09-12T02:08:07.477Z,2.90
2022-09-12T02:11:11.735Z,5.15
2022-09-12T02:14:20.334Z,2.83
2022-09-12T02:17:26.311Z,4.43
2022-09-12T02:20:51.032Z,3.63
2022-09-12T02:23:59.490Z,3.03
2022-09-12T02:27:18.770Z,3.33
2022-09-12T02:30:22.218Z,4.18
2022-09-12T02:33:49.970Z,4.43
2022-09-12T02:37:04.082Z,4.57
2022-09-12T02:40:09.045Z,5.32
2022-09-12T02:43:11.837Z,4.80
2022-09-12T02:46:19.403Z,4.10
2022-09-12T02:49:22.629Z,5.23
2022-09-12T02:52:26.133Z,3.93
2022-09-12T02:55:30.468Z,4.35
2022-09-12T02:58:33.193Z,4.75
2022-09-12T03:01:45.633Z,3.30
2022-09-12T03:05:20.326Z,3.80
2022-09-12T03:08:50.695Z,3.00
2022-09-12T03:12:11.949Z,3.28
2022-09-12T03:15:40.925Z,4.25
2022-09-12T03:18:53.880Z,4.70
2022-09-12T03:22:11.125Z,3.73
2022-09-12T03:25:21.004Z,4.00
2022-09-12T03:28:25.163Z,4.50
2022-09-12T03:31:27.833Z,4.95
2022-09-12T03:34:30.518Z,4.40
2022-09-12T03:37:32.967Z,4.43
2022-09-12T03:40:36.840Z,5.37
2022-09-12T03:43:39.382Z,4.15
2022-09-12T03:46:42.133Z,3.92
2022-09-12T03:49:44.775Z,4.85
2022-09-12T03:52:47.491Z,4.97
2022-09-12T03:55:49.893Z,4.13
2022-09-12T03:58:52.631Z,3.75
2022-09-12T04:01:55.114Z,3.78
2022-09-12T04:04:57.833Z,3.97
2022-09-12T04:08:00.283Z,4.87
2022-09-12T04:11:08.005Z,2.93
2022-09-12T04:14:10.471Z,4.40
2022-09-12T04:17:14.215Z,3.92
2022-09-12T04:20:16.950Z,4.70
2022-09-12T04:23:19.776Z,3.70
2022-09-12T04:26:22.470Z,4.47
2022-09-12T04:29:25.206Z,4.40
2022-09-12T04:32:29.785Z,3.47
2022-09-12T04:35:35.625Z,4.30
2022-09-12T04:38:39.093Z,4.73
2022-09-12T04:41:42.056Z,4.27
2022-09-12T04:44:44.520Z,3.55
2022-09-12T04:47:47.377Z,3.70
2022-09-12T04:50:50.029Z,4.12
2022-09-12T04:53:54.159Z,5.30
2022-09-12T04:56:56.956Z,4.87
2022-09-12T05:00:02.833Z,4.37
2022-09-12T05:03:08.990Z,4.45
2022-09-12T05:06:17.321Z,3.62
2022-09-12T05:09:19.733Z,4.83
2022-09-12T05:12:22.430Z,4.87
2022-09-12T05:15:25.210Z,4.35
2022-09-12T05:18:28.045Z,4.50
2022-09-12T05:21:30.522Z,3.95
2022-09-12T05:24:35.233Z,3.13
2022-09-12T05:27:37.712Z,5.13
2022-09-12T05:30:40.476Z,3.42
2022-09-12T05:33:44.525Z,3.12
2022-09-12T05:36:47.328Z,3.70
2022-09-12T05:39:50.050Z,3.20
2022-09-12T05:42:52.780Z,3.70
2022-09-12T05:46:10.626Z,3.00
2022-09-12T05:49:13.718Z,3.62
2022-09-12T05:52:16.357Z,3.70
2022-09-12T05:55:19.576Z,3.97
2022-09-12T05:58:23.059Z,2.60
2022-09-12T06:01:27.333Z,3.03
2022-09-12T06:04:30.125Z,2.58
2022-09-12T06:07:32.920Z,2.40
2022-09-12T06:10:35.638Z,3.63
2022-09-12T06:13:40.111Z,3.20
2022-09-12T06:16:42.982Z,3.70
2022-09-12T06:19:45.712Z,2.90
2022-09-12T06:22:48.486Z,3.67
2022-09-12T06:25:51.057Z,4.17
2022-09-12T06:28:55.181Z,3.63
2022-09-12T06:31:57.788Z,1.70
2022-09-12T06:35:00.531Z,3.67
2022-09-12T06:38:02.974Z,4.18
2022-09-12T06:41:11.443Z,4.37
2022-09-12T06:44:23.021Z,1.87
2022-09-12T06:47:25.736Z,3.28
2022-09-12T06:50:28.277Z,3.80
2022-09-12T06:53:33.701Z,3.62
2022-09-12T06:56:36.173Z,4.73
2022-09-12T06:59:39.298Z,3.53
2022-09-12T07:02:41.832Z,4.95
2022-09-12T07:05:46.082Z,4.40
2022-09-12T07:08:48.768Z,4.90
2022-09-12T07:11:51.520Z,2.90
2022-09-12T07:14:53.936Z,4.93
2022-09-12T07:17:56.656Z,4.97
2022-09-12T07:21:02.879Z,4.60
2022-09-12T07:24:06.393Z,4.53
2022-09-12T07:27:08.910Z,4.80
2022-09-12T07:30:12.153Z,4.90
2022-09-12T07:33:14.636Z,4.05
2022-09-12T07:36:19.024Z,4.03
2022-09-12T07:39:21.486Z,3.55
2022-09-12T07:42:24.185Z,4.10
2022-09-12T07:45:26.972Z,4.10
2022-09-12T07:48:29.852Z,3.00
2022-09-12T07:51:32.315Z,3.80
2022-09-12T07:54:35.257Z,2.20
2022-09-12T07:57:37.760Z,4.17
2022-09-12T08:00:41.208Z,4.13
2022-09-12T08:03:46.308Z,4.25
2022-09-12T08:06:49.037Z,4.03
2022-09-12T08:09:51.857Z,3.42
2022-09-12T08:12:54.377Z,2.60
2022-09-12T08:16:02.265Z,4.43
2022-09-12T08:19:05.372Z,3.22
2022-09-12T08:22:08.344Z,2.92
2022-09-12T08:25:10.930Z,3.03
2022-09-12T08:28:13.624Z,2.37
2022-09-12T08:31:18.202Z,3.23
2022-09-12T08:34:21.128Z,3.25
2022-09-12T08:37:23.711Z,3.40
2022-09-12T08:40:26.451Z,3.00
2022-09-12T08:43:56.693Z,3.60
2022-09-12T08:47:17.751Z,2.93
2022-09-12T08:50:22.357Z,3.37
2022-09-12T08:53:26.217Z,3.28
2022-09-12T08:56:32.176Z,4.60
2022-09-12T08:59:41.415Z,3.80
2022-09-12T09:03:02.024Z,3.37
2022-09-12T09:06:19.931Z,3.53
2022-09-12T09:09:46.743Z,2.97
2022-09-12T09:13:07.883Z,3.40
2022-09-12T09:16:33.131Z,3.60
2022-09-12T09:19:39.428Z,4.10
2022-09-12T09:22:53.589Z,4.55
2022-09-12T09:26:15.738Z,4.28
2022-09-12T09:29:20.519Z,3.87
2022-09-12T09:32:28.823Z,4.03
2022-09-12T09:35:45.618Z,4.40
2022-09-12T09:38:50.675Z,4.03
2022-09-12T09:42:19.949Z,4.60
2022-09-12T09:45:25.198Z,3.80
2022-09-12T09:48:36.445Z,3.78
2022-09-12T09:51:39.750Z,3.20
2022-09-12T09:54:50.177Z,3.85
2022-09-12T09:57:53.365Z,3.37
2022-09-12T10:01:17.315Z,2.70
2022-09-12T10:04:22.667Z,3.20
2022-09-12T10:07:26.290Z,2.20
2022-09-12T10:10:28.963Z,3.17
2022-09-12T10:13:40.601Z,3.50
2022-09-12T10:16:54.263Z,3.65
2022-09-12T10:20:17.434Z,2.42
2022-09-12T10:23:19.659Z,3.20
2022-09-12T10:26:22.072Z,2.78
2022-09-12T10:29:28.935Z,2.55
2022-09-12T10:32:41.810Z,4.45
2022-09-12T10:35:48.936Z,3.10
2022-09-12T10:38:57.538Z,2.60
2022-09-12T10:42:01.376Z,2.83
2022-09-12T10:45:04.116Z,2.90
2022-09-12T10:48:27.419Z,2.55
2022-09-12T10:51:30.457Z,3.12
2022-09-12T10:54:34.499Z,2.70
2022-09-12T10:57:44.997Z,3.10
2022-09-12T11:00:54.462Z,2.25
2022-09-12T11:04:10.247Z,2.30
2022-09-12T11:07:34.113Z,2.12
2022-09-12T11:10:51.792Z,1.43
2022-09-12T11:14:03.410Z,2.30
2022-09-12T11:17:46.959Z,2.00
2022-09-12T11:21:02.413Z,1.73
2022-09-12T11:24:29.331Z,1.35
2022-09-12T11:27:31.853Z,1.50
2022-09-12T11:30:50.577Z,2.58
2022-09-12T11:33:56.634Z,2.40
2022-09-12T11:37:21.290Z,2.20
2022-09-12T11:40:29.889Z,2.50
2022-09-12T11:43:40.152Z,1.60
2022-09-12T11:46:44.709Z,2.28
2022-09-12T11:49:51.177Z,2.00
2022-09-12T11:52:58.175Z,1.37
2022-09-12T11:56:13.687Z,2.10
2022-09-12T11:59:46.854Z,2.07
2022-09-12T12:03:23.842Z,1.85
2022-09-12T12:06:52.358Z,1.90
2022-09-12T12:09:55.796Z,2.12
2022-09-12T12:12:59.415Z,2.20
2022-09-12T12:16:08.337Z,2.10
2022-09-12T12:19:13.891Z,1.90
2022-09-12T12:22:20.570Z,2.60
2022-09-12T12:25:29.829Z,2.40
2022-09-12T12:28:41.795Z,2.75
2022-09-12T12:31:59.903Z,1.50
2022-09-12T12:35:41.370Z,2.20
2022-09-12T12:38:44.440Z,2.10
2022-09-12T12:41:46.914Z,2.72
2022-09-12T12:44:51.453Z,1.67
2022-09-12T12:48:10.609Z,1.83
2022-09-12T12:51:34.158Z,1.23
2022-09-12T12:55:03.513Z,2.10
2022-09-12T12:58:08.002Z,1.80
2022-09-12T13:01:14.009Z,1.15
2022-09-12T13:04:22.349Z,1.90
2022-09-12T13:07:29.223Z,1.60
2022-09-12T13:10:31.986Z,2.15
2022-09-12T13:13:43.950Z,1.77
2022-09-12T13:16:54.874Z,1.70
2022-09-12T13:20:27.333Z,1.93
2022-09-12T13:23:32.648Z,2.10
2022-09-12T13:26:41.569Z,1.55
2022-09-12T13:29:44.265Z,2.35
2022-09-12T13:32:46.690Z,2.43
2022-09-12T13:36:09.811Z,2.07
2022-09-12T13:39:27.130Z,2.05
2022-09-12T13:42:48.677Z,2.47
2022-09-12T13:45:52.857Z,2.33
2022-09-12T13:49:01.674Z,2.60
2022-09-12T13:52:07.075Z,2.80
2022-09-12T13:55:36.554Z,2.90
2022-09-12T13:58:39.019Z,2.08
2022-09-12T14:01:46.840Z,2.47
2022-09-12T14:05:10.434Z,2.47
2022-09-12T14:08:15.466Z,2.33
2022-09-12T14:11:25.425Z,2.40
2022-09-12T14:14:31.481Z,1.87
2022-09-12T14:17:36.432Z,2.22
2022-09-12T14:20:39.459Z,3.23
2022-09-12T14:23:43.323Z,1.27
2022-09-12T14:26:47.463Z,1.85
2022-09-12T14:29:53.981Z,1.80
2022-09-12T14:33:11.580Z,1.85
2022-09-12T14:36:26.305Z,2.45
2022-09-12T14:39:30.309Z,1.93
2022-09-12T14:42:34.224Z,2.17
2022-09-12T14:45:36.598Z,2.40
2022-09-12T14:48:44.467Z,2.25
2022-09-12T14:51:57.557Z,2.40
2022-09-12T14:55:20.251Z,2.30
2022-09-12T14:58:26.465Z,2.10
2022-09-12T15:01:29.175Z,2.50
2022-09-12T15:04:41.254Z,2.37
2022-09-12T15:08:00.026Z,2.60
2022-09-12T15:11:02.590Z,2.50
2022-09-12T15:14:15.440Z,2.58
2022-09-12T15:17:17.805Z,2.40
2022-09-12T15:20:21.309Z,2.62
2022-09-12T15:23:36.285Z,3.47
2022-09-12T15:26:39.326Z,2.87
2022-09-12T15:29:41.722Z,1.70
2022-09-12T15:32:45.003Z,3.37
2022-09-12T15:35:47.445Z,2.45
2022-09-12T15:38:51.135Z,2.25
2022-09-12T15:41:53.950Z,2.00
2022-09-12T15:45:00.546Z,2.80
2022-09-12T15:48:05.681Z,2.47
2022-09-12T15:51:15.253Z,2.25
2022-09-12T15:54:18.539Z,2.10
2022-09-12T15:57:21.201Z,2.60
2022-09-12T16:00:24.095Z,1.87
2022-09-12T16:03:28.205Z,2.17
2022-09-12T16:06:37.021Z,1.65
2022-09-12T16:09:40.213Z,2.03
2022-09-12T16:12:44.607Z,2.23
2022-09-12T16:15:47.324Z,2.05
2022-09-12T16:18:49.768Z,1.98
2022-09-12T16:21:52.575Z,1.83
2022-09-12T16:24:54.942Z,2.10
2022-09-12T16:27:57.625Z,2.10
2022-09-12T16:31:02.098Z,2.33
2022-09-12T16:34:04.747Z,2.28
2022-09-12T16:37:07.125Z,1.92
2022-09-12T16:40:10.541Z,2.70
2022-09-12T16:43:13.721Z,2.40
2022-09-12T16:46:25.312Z,1.90
2022-09-12T16:49:27.752Z,2.05
2022-09-12T16:52:31.253Z,2.30
2022-09-12T16:55:33.643Z,2.33
2022-09-12T16:58:41.765Z,2.27
2022-09-12T17:01:45.333Z,2.30
2022-09-12T17:04:47.991Z,2.00
2022-09-12T17:07:50.383Z,2.35
2022-09-12T17:10:53.291Z,2.30
2022-09-12T17:14:05.877Z,2.00
2022-09-12T17:17:09.294Z,1.98
2022-09-12T17:20:11.664Z,2.95
2022-09-12T17:23:14.481Z,5.90
2022-09-12T17:26:17.214Z,8.53
2022-09-12T17:29:20.070Z,5.00
2022-09-12T17:32:22.464Z,2.22
2022-09-12T17:35:25.686Z,1.80
2022-09-12T17:38:28.161Z,2.17
2022-09-12T17:41:34.175Z,2.80
2022-09-12T17:44:37.115Z,2.60
2022-09-12T17:47:39.888Z,3.20
2022-09-12T17:50:42.475Z,2.97
2022-09-12T17:53:45.426Z,2.97
2022-09-12T17:56:49.800Z,3.00
2022-09-12T17:59:52.587Z,3.50
2022-09-12T18:02:55.056Z,2.75
2022-09-12T18:05:57.725Z,2.60
2022-09-12T18:09:05.397Z,2.45
2022-09-12T18:12:08.597Z,2.60
2022-09-12T18:15:11.223Z,2.37
2022-09-12T18:18:13.877Z,2.12
2022-09-12T18:21:16.273Z,2.10
2022-09-12T18:24:19.202Z,2.45
2022-09-12T18:27:21.626Z,2.40
2022-09-12T18:30:24.601Z,2.07
2022-09-12T18:33:27.146Z,2.00
2022-09-12T18:36:30.669Z,1.75
2022-09-12T18:39:33.041Z,1.90
2022-09-12T18:42:35.735Z,2.10
2022-09-12T18:45:38.162Z,2.10
2022-09-12T18:48:41.014Z,1.70
2022-09-12T18:51:44.499Z,2.03
2022-09-12T18:54:47.286Z,2.40
2022-09-12T18:57:50.601Z,2.03
2022-09-12T19:00:53.512Z,1.97
2022-09-12T19:03:56.236Z,2.28
2022-09-12T19:06:58.865Z,2.03
2022-09-12T19:10:01.541Z,2.37
2022-09-12T19:13:04.235Z,2.67
2022-09-12T19:16:11.643Z,2.40
2022-09-12T19:19:14.437Z,2.40
2022-09-12T19:22:16.917Z,2.55
2022-09-12T19:25:19.696Z,2.35
2022-09-12T19:28:22.079Z,2.13
2022-09-12T19:31:25.336Z,2.37
2022-09-12T19:34:28.085Z,2.72
2022-09-12T19:37:30.739Z,2.40
2022-09-12T19:40:33.152Z,2.47
2022-09-12T19:43:35.934Z,3.00
2022-09-12T19:46:38.498Z,3.00
2022-09-12T19:49:41.261Z,2.78
2022-09-12T19:52:43.627Z,2.80
2022-09-12T19:55:46.806Z,2.62
2022-09-12T19:58:55.762Z,2.70
2022-09-12T20:01:58.985Z,2.50
2022-09-12T20:05:01.917Z,2.47
2022-09-12T20:08:04.336Z,3.40
2022-09-12T20:11:07.799Z,3.17
2022-09-12T20:14:10.285Z,2.73
2022-09-12T20:17:13.112Z,2.50
2022-09-12T20:20:15.715Z,3.22
2022-09-12T20:23:18.541Z,2.83
2022-09-12T20:26:23.595Z,3.00
2022-09-12T20:29:26.984Z,2.70
2022-09-12T20:32:29.397Z,2.50
2022-09-12T20:35:32.091Z,3.00
2022-09-12T20:38:35.214Z,2.92
2022-09-12T20:41:37.834Z,3.30
2022-09-12T20:44:40.352Z,3.03
2022-09-12T20:47:43.082Z,3.00
2022-09-12T20:50:45.552Z,2.72
2022-09-12T20:53:48.657Z,2.90
2022-09-12T20:56:51.194Z,2.78
2022-09-12T20:59:54.168Z,2.67
2022-09-12T21:02:56.872Z,2.70
2022-09-12T21:05:59.591Z,2.70
2022-09-12T21:09:02.020Z,3.08
2022-09-12T21:12:04.770Z,2.72
2022-09-12T21:15:07.634Z,2.97
2022-09-12T21:18:10.306Z,3.17
2022-09-12T21:21:14.136Z,3.25
2022-09-12T21:24:16.850Z,3.20
2022-09-12T21:27:19.288Z,3.55
2022-09-12T21:30:22.285Z,3.00
2022-09-12T21:33:24.978Z,3.47
2022-09-12T21:36:27.591Z,2.90
2022-09-12T21:39:30.284Z,3.53
2022-09-12T21:42:33.000Z,3.37
2022-09-12T21:45:35.350Z,3.23
2022-09-12T21:48:38.132Z,3.00
2022-09-12T21:51:40.484Z,2.80
2022-09-12T21:54:43.169Z,3.65
2022-09-12T21:57:46.752Z,3.40
2022-09-12T22:00:49.672Z,3.43
2022-09-12T22:03:52.836Z,3.50
2022-09-12T22:06:55.229Z,3.40
2022-09-12T22:09:58.004Z,3.50
2022-09-12T22:13:04.045Z,3.60
2022-09-12T22:16:07.586Z,3.30
2022-09-12T22:19:10.043Z,3.27
2022-09-12T22:22:31.624Z,3.40
2022-09-12T22:25:34.128Z,3.75
2022-09-12T22:28:36.887Z,3.60
2022-09-12T22:31:39.961Z,3.90
2022-09-12T22:34:42.733Z,4.17
2022-09-12T22:37:46.786Z,4.07
2022-09-12T22:40:49.940Z,4.10
2022-09-12T22:43:52.283Z,4.32
2022-09-12T22:46:54.954Z,4.03
2022-09-12T22:49:57.452Z,3.70
2022-09-12T22:53:00.120Z,4.10
2022-09-12T22:56:03.602Z,4.00
2022-09-12T22:59:06.774Z,3.97
2022-09-12T23:02:09.148Z,3.60
2022-09-12T23:05:12.329Z,3.40
2022-09-12T23:08:16.230Z,3.87
2022-09-12T23:11:20.866Z,3.67
2022-09-12T23:14:23.286Z,3.85
2022-09-12T23:17:25.898Z,3.80
2022-09-12T23:20:28.902Z,3.73
2022-09-12T23:23:31.997Z,3.72
2022-09-12T23:26:34.408Z,4.00
2022-09-12T23:29:37.126Z,3.87
2022-09-12T23:32:39.476Z,3.80
2022-09-12T23:35:42.983Z,3.50
2022-09-12T23:38:46.216Z,4.25
2022-09-12T23:41:49.758Z,3.78
2022-09-12T23:44:52.190Z,3.95
2022-09-12T23:47:54.870Z,3.70
2022-09-12T23:50:57.633Z,3.60
2022-09-12T23:54:00.355Z,4.32
2022-09-12T23:57:02.787Z,4.40
